This demonstration page uses our WeatherBlox Daily Observations layout. Learn more.

Left ArrowRight Arrow

34.74481, -87.66753

Hourly Observations for June 29, 2020

Temp ( °F °C ) Dew Point ( °F °C ) Humidity (%) Winds ( mph kmh ) Pressure ( in mb ) Visibility ( mi km ) Precip ( " mm )
12:53 am 00:53 Clear N/A N/A N/A Calm N/A 10 16 0.00 0.00
1:53 am 01:53 Clear N/A N/A N/A Calm N/A 10 16 0.00 0.00
2:53 am 02:53 Clear N/A N/A N/A SSW 5 7 N/A 10 16 0.00 0.00
3:53 am 03:53 Clear N/A N/A N/A Calm N/A 10 16 0.00 0.00
4:53 am 04:53 Clear N/A N/A N/A Calm N/A 10 16 0.00 0.00
5:53 am 05:53 Sunny N/A N/A N/A E 3 6 N/A 7 11 0.00 0.00
6:53 am 06:53 Sunny N/A N/A N/A Calm N/A 8 13 0.00 0.00
7:53 am 07:53 Sunny N/A N/A N/A SW 3 6 N/A 10 16 0.00 0.00
8:53 am 08:53 Sunny N/A N/A N/A WSW 5 7 N/A 10 16 0.00 0.00
9:53 am 09:53 Sunny N/A N/A N/A SW 5 7 N/A 10 16 0.00 0.00
10:53 am 10:53 Mostly Sunny N/A N/A N/A VRB 3 6 N/A 10 16 0.00 0.00
11:53 am 11:53 Partly Cloudy N/A N/A N/A WSW 6 9 N/A 10 16 0.00 0.00
12:53 pm 12:53 Mostly Cloudy with Light Rain N/A N/A N/A W 9 15 N/A 9 14 0.00 0.00
1:06 pm 13:06 Cloudy with Thunderstorms N/A N/A N/A WNW 10 17 N/A 9 14 0.00 0.00
1:18 pm 13:18 Mostly Cloudy N/A N/A N/A SSW 12 19 N/A 10 16 0.00 0.00
1:23 pm 13:23 Mostly Cloudy with Thunderstorms N/A N/A N/A S 10 17 N/A 10 16 0.00 0.00
1:33 pm 13:33 Cloudy with Thunderstorms N/A N/A N/A NW 16 26 N/A 2 3 0.08 2.03
1:42 pm 13:42 Cloudy with Thunderstorms N/A N/A N/A WNW 12 19 N/A 3 5 0.10 2.54
1:53 pm 13:53 Mostly Cloudy with Nearby Thunderstorms N/A N/A N/A N 3 6 N/A 10 16 0.10 2.54
2:13 pm 14:13 Partly Cloudy with Thunderstorms N/A N/A N/A E 13 20 N/A 10 16 0.00 0.00
2:53 pm 14:53 Partly Cloudy with Nearby Thunderstorms N/A N/A N/A N 5 7 N/A 10 16 0.01 0.25
3:12 pm 15:12 Mostly Cloudy with Thunderstorms N/A N/A N/A Calm N/A 6 10 0.01 0.25
3:27 pm 15:27 Mostly Cloudy with Nearby Thunderstorms N/A N/A N/A WSW 10 17 N/A 4 6 0.04 1.02
3:45 pm 15:45 Mostly Cloudy with Light Rain N/A N/A N/A NNE 3 6 N/A 7 11 0.04 1.02
3:53 pm 15:53 Mostly Cloudy with Light Rain N/A N/A N/A NE 3 6 N/A 8 13 0.05 1.27
4:53 pm 16:53 Mostly Cloudy N/A N/A N/A N 3 6 N/A 10 16 0.00 0.00
5:53 pm 17:53 Sunny N/A N/A N/A SE 7 11 N/A 10 16 0.00 0.00
6:53 pm 18:53 Sunny N/A N/A N/A SE 7 11 N/A 10 16 0.00 0.00
7:53 pm 19:53 Sunny N/A N/A N/A SE 6 9 N/A 10 16 0.00 0.00
8:53 pm 20:53 Clear N/A N/A N/A Calm N/A 10 16 0.00 0.00
9:53 pm 21:53 Clear N/A N/A N/A Calm N/A 10 16 0.00 0.00
10:53 pm 22:53 Clear N/A N/A N/A Calm N/A 10 16 0.00 0.00
11:53 pm 23:53 Clear N/A N/A N/A Calm N/A 10 16 0.00 0.00

Powered by AerisWeather